createdAt,value
2018-05-01T00:02:11.065Z,67.00
2018-05-01T00:04:45.621Z,67.17
2018-05-01T00:07:20.861Z,67.61
2018-05-01T00:09:55.805Z,67.60
2018-05-01T00:12:30.640Z,67.05
2018-05-01T00:15:05.001Z,66.78
2018-05-01T00:17:39.964Z,66.79
2018-05-01T00:20:15.041Z,66.98
2018-05-01T00:22:50.177Z,66.37
2018-05-01T00:25:25.192Z,66.49
2018-05-01T00:28:00.505Z,66.35
2018-05-01T00:30:35.258Z,66.65
2018-05-01T00:33:10.213Z,66.59
2018-05-01T00:35:45.041Z,66.83
2018-05-01T00:38:19.752Z,66.88
2018-05-01T00:40:54.596Z,66.73
2018-05-01T00:43:29.441Z,67.02
2018-05-01T00:46:03.854Z,67.20
2018-05-01T00:48:38.353Z,67.52
2018-05-01T00:51:13.301Z,67.72
2018-05-01T00:53:48.040Z,67.53
2018-05-01T00:56:22.929Z,67.87
2018-05-01T00:58:57.805Z,67.95
2018-05-01T01:01:32.485Z,68.27
2018-05-01T01:04:07.229Z,69.32
2018-05-01T01:06:41.751Z,69.89
2018-05-01T01:09:16.646Z,70.38
2018-05-01T01:11:51.744Z,71.03
2018-05-01T01:14:26.241Z,71.69
2018-05-01T01:17:01.153Z,72.45
2018-05-01T01:19:35.849Z,72.89
2018-05-01T01:22:10.809Z,73.99
2018-05-01T01:24:45.604Z,74.83
2018-05-01T01:27:20.844Z,75.14
2018-05-01T01:29:56.808Z,75.42
2018-05-01T01:32:30.989Z,74.92
2018-05-01T01:35:04.961Z,75.43
2018-05-01T01:37:38.089Z,75.51
2018-05-01T01:40:12.173Z,75.43
2018-05-01T01:42:46.233Z,75.36
2018-05-01T01:45:20.382Z,75.09
2018-05-01T01:47:54.065Z,75.38
2018-05-01T01:50:27.785Z,75.44
2018-05-01T01:53:01.670Z,75.88
2018-05-01T01:55:35.592Z,75.91
2018-05-01T01:58:09.197Z,76.25
2018-05-01T02:00:43.125Z,76.50
2018-05-01T02:03:17.157Z,76.68
2018-05-01T02:05:50.853Z,76.82
2018-05-01T02:08:24.565Z,77.23
2018-05-01T02:10:58.739Z,77.57
2018-05-01T02:13:32.345Z,77.76
2018-05-01T02:16:06.350Z,78.06
2018-05-01T02:18:40.249Z,78.26
2018-05-01T02:21:14.173Z,79.08
2018-05-01T02:23:48.050Z,79.66
2018-05-01T02:26:21.983Z,80.04
2018-05-01T02:28:55.682Z,80.74
2018-05-01T02:31:29.330Z,80.96
2018-05-01T02:34:03.433Z,81.29
2018-05-01T02:36:37.015Z,81.47
2018-05-01T02:39:10.669Z,82.01
2018-05-01T02:41:44.117Z,82.14
2018-05-01T02:44:17.619Z,82.54
2018-05-01T02:46:51.377Z,82.76
2018-05-01T02:49:24.851Z,83.25
2018-05-01T02:51:58.849Z,83.35
2018-05-01T02:54:32.558Z,83.82
2018-05-01T02:57:06.267Z,84.58
2018-05-01T02:59:40.649Z,84.80
2018-05-01T03:02:14.526Z,85.23
2018-05-01T03:04:47.993Z,85.45
2018-05-01T03:07:21.757Z,85.75
2018-05-01T03:09:55.484Z,85.80
2018-05-01T03:12:29.041Z,85.92
2018-05-01T03:15:02.485Z,85.99
2018-05-01T03:17:36.194Z,86.08
2018-05-01T03:20:09.765Z,86.23
2018-05-01T03:22:43.997Z,86.19
2018-05-01T03:25:17.627Z,86.14
2018-05-01T03:27:51.211Z,86.62
2018-05-01T03:30:24.930Z,86.67
2018-05-01T03:32:58.689Z,86.79
2018-05-01T03:35:32.260Z,87.07
2018-05-01T03:38:05.845Z,87.15
2018-05-01T03:40:39.541Z,86.82
2018-05-01T03:43:12.932Z,87.00
2018-05-01T03:45:46.649Z,86.97
2018-05-01T03:48:20.333Z,87.29
2018-05-01T03:50:53.952Z,87.08
2018-05-01T03:53:27.438Z,87.25
2018-05-01T03:56:01.174Z,87.39
2018-05-01T03:58:34.793Z,87.18
2018-05-01T04:01:08.546Z,87.35
2018-05-01T04:03:42.156Z,87.33
2018-05-01T04:06:15.825Z,87.63
2018-05-01T04:08:49.309Z,87.40
2018-05-01T04:11:23.157Z,87.52
2018-05-01T04:13:56.589Z,87.36
2018-05-01T04:16:30.373Z,87.50
2018-05-01T04:19:04.180Z,86.98
2018-05-01T04:21:38.001Z,86.84
2018-05-01T04:24:11.905Z,87.01
2018-05-01T04:26:45.625Z,86.89
2018-05-01T04:29:18.997Z,86.75
2018-05-01T04:31:52.601Z,86.72
2018-05-01T04:34:25.929Z,86.72
2018-05-01T04:37:00.385Z,86.59
2018-05-01T04:39:34.028Z,86.46
2018-05-01T04:42:07.623Z,86.67
2018-05-01T04:44:41.242Z,86.67
2018-05-01T04:47:14.921Z,86.75
2018-05-01T04:49:48.598Z,86.69
2018-05-01T04:52:22.553Z,86.89
2018-05-01T04:54:56.168Z,87.02
2018-05-01T04:57:29.961Z,87.26
2018-05-01T05:00:03.458Z,87.63
2018-05-01T05:02:36.851Z,87.92
2018-05-01T05:05:10.470Z,88.25
2018-05-01T05:07:43.872Z,88.49
2018-05-01T05:10:17.476Z,88.42
2018-05-01T05:12:50.928Z,88.76
2018-05-01T05:15:24.877Z,88.86
2018-05-01T05:17:58.708Z,88.56
2018-05-01T05:20:32.285Z,88.81
2018-05-01T05:23:05.874Z,89.10
2018-05-01T05:25:39.192Z,89.46
2018-05-01T05:28:13.229Z,89.68
2018-05-01T05:30:46.600Z,89.44
2018-05-01T05:33:20.285Z,89.68
2018-05-01T05:35:53.589Z,89.47
2018-05-01T05:38:27.241Z,89.15
2018-05-01T05:41:00.913Z,89.00
2018-05-01T05:43:35.297Z,89.17
2018-05-01T05:46:08.613Z,88.81
2018-05-01T05:48:42.310Z,88.70
2018-05-01T05:51:16.124Z,88.47
2018-05-01T05:53:49.633Z,88.06
2018-05-01T05:56:23.833Z,87.92
2018-05-01T05:58:57.856Z,88.27
2018-05-01T06:01:31.575Z,88.26
2018-05-01T06:04:05.161Z,88.32
2018-05-01T06:06:38.808Z,87.84
2018-05-01T06:09:12.533Z,87.91
2018-05-01T06:11:46.110Z,87.36
2018-05-01T06:14:20.041Z,86.97
2018-05-01T06:16:53.785Z,86.99
2018-05-01T06:19:27.275Z,86.62
2018-05-01T06:22:01.108Z,86.14
2018-05-01T06:24:34.676Z,85.72
2018-05-01T06:27:08.220Z,85.49
2018-05-01T06:29:42.167Z,85.81
2018-05-01T06:32:15.708Z,85.21
2018-05-01T06:34:49.599Z,85.63
2018-05-01T06:37:23.196Z,85.34
2018-05-01T06:39:56.852Z,85.33
2018-05-01T06:42:30.409Z,85.12
2018-05-01T06:45:04.270Z,84.92
2018-05-01T06:47:38.026Z,84.87
2018-05-01T06:50:11.469Z,84.59
2018-05-01T06:52:54.885Z,84.78
2018-05-01T06:55:28.459Z,84.90
2018-05-01T06:58:02.261Z,84.61
2018-05-01T07:00:35.737Z,84.58
2018-05-01T07:03:09.317Z,84.46
2018-05-01T07:05:42.868Z,84.02
2018-05-01T07:08:16.525Z,84.49
2018-05-01T07:10:50.468Z,84.86
2018-05-01T07:13:24.306Z,84.51
2018-05-01T07:15:58.001Z,84.88
2018-05-01T07:18:31.614Z,84.93
2018-05-01T07:21:05.465Z,85.03
2018-05-01T07:23:38.973Z,84.89
2018-05-01T07:26:12.613Z,85.50
2018-05-01T07:28:47.132Z,85.60
2018-05-01T07:31:20.949Z,86.41
2018-05-01T07:33:54.537Z,86.08
2018-05-01T07:36:27.952Z,85.97
2018-05-01T07:39:01.331Z,85.86
2018-05-01T07:41:35.263Z,85.16
2018-05-01T07:44:09.377Z,85.19
2018-05-01T07:46:43.166Z,85.55
2018-05-01T07:49:16.975Z,85.65
2018-05-01T07:51:51.200Z,86.00
2018-05-01T07:54:24.656Z,86.11
2018-05-01T07:56:58.609Z,85.74
2018-05-01T07:59:32.417Z,86.18
2018-05-01T08:02:06.138Z,85.67
2018-05-01T08:04:39.623Z,85.33
2018-05-01T08:07:13.172Z,85.95
2018-05-01T08:09:46.705Z,85.92
2018-05-01T08:12:20.440Z,86.14
2018-05-01T08:14:53.913Z,85.37
2018-05-01T08:17:27.305Z,85.45
2018-05-01T08:20:00.816Z,85.34
2018-05-01T08:22:34.644Z,85.42
2018-05-01T08:25:08.149Z,85.32
2018-05-01T08:27:42.109Z,84.98
2018-05-01T08:30:15.613Z,84.95
2018-05-01T08:32:49.412Z,85.50
2018-05-01T08:35:23.252Z,85.08
2018-05-01T08:37:56.612Z,85.52
2018-05-01T08:40:31.075Z,85.05
2018-05-01T08:43:04.557Z,84.65
2018-05-01T08:45:37.957Z,85.18
2018-05-01T08:48:11.775Z,84.73
2018-05-01T08:50:45.501Z,85.46
2018-05-01T08:53:19.798Z,84.52
2018-05-01T08:55:53.457Z,84.74
2018-05-01T08:58:27.553Z,84.79
2018-05-01T09:01:01.305Z,84.75
2018-05-01T09:03:35.388Z,85.20
2018-05-01T09:06:08.994Z,85.26
2018-05-01T09:08:42.568Z,85.19
2018-05-01T09:11:16.465Z,85.50
2018-05-01T09:13:50.358Z,85.86
2018-05-01T09:16:23.972Z,85.58
2018-05-01T09:18:57.562Z,85.96
2018-05-01T09:21:31.589Z,86.93
2018-05-01T09:24:05.413Z,87.52
2018-05-01T09:26:39.188Z,87.93
2018-05-01T09:29:12.986Z,87.62
2018-05-01T09:31:46.826Z,87.47
2018-05-01T09:34:20.828Z,88.16
2018-05-01T09:36:54.519Z,88.44
2018-05-01T09:39:28.734Z,88.72
2018-05-01T09:42:02.693Z,89.13
2018-05-01T09:44:36.817Z,89.27
2018-05-01T09:47:10.888Z,89.40
2018-05-01T09:49:44.480Z,89.41
2018-05-01T09:52:19.168Z,88.61
2018-05-01T09:54:54.220Z,89.15
2018-05-01T09:57:29.063Z,88.81
2018-05-01T10:00:03.993Z,89.10
2018-05-01T10:02:39.117Z,87.55
2018-05-01T10:05:14.210Z,87.81
2018-05-01T10:07:49.257Z,86.74
2018-05-01T10:10:24.393Z,85.77
2018-05-01T10:12:59.785Z,85.72
2018-05-01T10:15:34.594Z,85.44
2018-05-01T10:18:09.672Z,84.93
2018-05-01T10:20:44.084Z,84.59
2018-05-01T10:23:19.225Z,83.92
2018-05-01T10:25:53.668Z,84.06
2018-05-01T10:28:28.845Z,83.23
2018-05-01T10:31:03.296Z,83.38
2018-05-01T10:33:37.992Z,82.46
2018-05-01T10:36:13.236Z,82.17
2018-05-01T10:38:48.132Z,82.29
2018-05-01T10:41:23.361Z,82.23
2018-05-01T10:43:58.719Z,81.78
2018-05-01T10:46:33.717Z,81.50
2018-05-01T10:49:08.313Z,80.96
2018-05-01T10:51:43.698Z,81.64
2018-05-01T10:54:18.485Z,81.30
2018-05-01T10:56:53.472Z,80.90
2018-05-01T10:59:28.489Z,81.30
2018-05-01T11:02:03.306Z,81.61
2018-05-01T11:04:38.049Z,81.23
2018-05-01T11:07:12.973Z,80.65
2018-05-01T11:09:47.818Z,81.00
2018-05-01T11:12:22.320Z,81.24
2018-05-01T11:14:57.465Z,80.31
2018-05-01T11:17:32.577Z,80.53
2018-05-01T11:20:07.471Z,80.13
2018-05-01T11:22:42.308Z,79.81
2018-05-01T11:25:17.202Z,77.95
2018-05-01T11:27:52.228Z,78.27
2018-05-01T11:30:27.334Z,77.12
2018-05-01T11:33:02.229Z,77.75
2018-05-01T11:35:37.210Z,75.91
2018-05-01T11:38:11.360Z,75.61
2018-05-01T11:40:46.501Z,76.30
2018-05-01T11:43:21.651Z,76.09
2018-05-01T11:45:56.544Z,75.54
2018-05-01T11:48:31.244Z,74.81
2018-05-01T11:51:05.897Z,74.87
2018-05-01T11:53:40.980Z,74.90
2018-05-01T11:56:15.909Z,75.54
2018-05-01T11:58:50.932Z,75.52
2018-05-01T12:01:25.836Z,75.01
2018-05-01T12:04:00.637Z,75.70
2018-05-01T12:06:35.542Z,75.86
2018-05-01T12:09:10.570Z,74.56
2018-05-01T12:11:45.345Z,73.53
2018-05-01T12:14:20.026Z,73.90
2018-05-01T12:16:54.977Z,74.15
2018-05-01T12:19:29.691Z,71.33
2018-05-01T12:22:04.397Z,71.78
2018-05-01T12:24:39.341Z,71.33
2018-05-01T12:27:15.185Z,71.13
2018-05-01T12:29:50.454Z,71.84
2018-05-01T12:32:25.472Z,69.90
2018-05-01T12:35:00.309Z,68.31
2018-05-01T12:37:35.503Z,69.09
2018-05-01T12:40:10.189Z,69.03
2018-05-01T12:42:44.580Z,67.10
2018-05-01T12:45:19.645Z,65.14
2018-05-01T12:47:54.638Z,64.55
2018-05-01T12:50:29.928Z,65.13
2018-05-01T12:53:04.821Z,63.95
2018-05-01T12:55:39.828Z,64.11
2018-05-01T12:58:14.985Z,63.86
2018-05-01T13:00:49.966Z,63.58
2018-05-01T13:03:24.864Z,62.50
2018-05-01T13:06:08.963Z,62.24
2018-05-01T13:08:43.537Z,62.45
2018-05-01T13:11:18.602Z,60.76
2018-05-01T13:13:53.272Z,59.45
2018-05-01T13:16:28.185Z,58.31
2018-05-01T13:19:02.980Z,57.97
2018-05-01T13:21:37.771Z,57.21
2018-05-01T13:24:12.417Z,57.64
2018-05-01T13:26:47.025Z,58.70
2018-05-01T13:29:21.913Z,59.42
2018-05-01T13:31:56.813Z,58.32
2018-05-01T13:34:31.501Z,57.61
2018-05-01T13:37:06.216Z,56.53
2018-05-01T13:39:40.961Z,56.12
2018-05-01T13:42:15.880Z,55.38
2018-05-01T13:44:50.989Z,54.71
2018-05-01T13:47:26.109Z,55.44
2018-05-01T13:50:00.741Z,54.98
2018-05-01T13:52:35.693Z,55.49
2018-05-01T13:55:10.793Z,55.07
2018-05-01T13:57:45.701Z,55.65
2018-05-01T14:00:20.485Z,54.94
2018-05-01T14:02:55.462Z,54.95
2018-05-01T14:05:30.560Z,54.13
2018-05-01T14:08:04.890Z,55.00
2018-05-01T14:10:39.925Z,55.94
2018-05-01T14:13:14.859Z,53.97
2018-05-01T14:15:49.717Z,55.13
2018-05-01T14:18:24.797Z,52.05
2018-05-01T14:20:59.532Z,53.11
2018-05-01T14:23:34.681Z,53.75
2018-05-01T14:26:09.522Z,54.32
2018-05-01T14:28:44.665Z,54.24
2018-05-01T14:31:19.772Z,54.35
2018-05-01T14:33:54.744Z,53.18
2018-05-01T14:36:29.462Z,52.62
2018-05-01T14:39:03.557Z,53.07
2018-05-01T14:41:38.513Z,53.63
2018-05-01T14:44:13.560Z,53.71
2018-05-01T14:46:48.177Z,54.11
2018-05-01T14:49:22.713Z,53.98
2018-05-01T14:51:57.841Z,53.24
2018-05-01T14:54:32.682Z,53.81
2018-05-01T14:57:07.428Z,53.85
2018-05-01T14:59:42.657Z,54.18
2018-05-01T15:02:17.384Z,54.46
2018-05-01T15:04:52.189Z,53.19
2018-05-01T15:07:27.220Z,53.18
2018-05-01T15:10:01.943Z,52.54
2018-05-01T15:12:36.933Z,52.37
2018-05-01T15:15:12.054Z,52.35
2018-05-01T15:17:47.306Z,52.22
2018-05-01T15:20:22.280Z,51.28
2018-05-01T15:22:57.337Z,52.00
2018-05-01T15:25:33.047Z,52.91
2018-05-01T15:28:07.845Z,51.31
2018-05-01T15:30:42.429Z,48.85
2018-05-01T15:33:17.697Z,49.96
2018-05-01T15:35:52.674Z,50.93
2018-05-01T15:38:27.717Z,51.85
2018-05-01T15:41:02.565Z,52.23
2018-05-01T15:43:37.329Z,51.73
2018-05-01T15:46:11.923Z,49.93
2018-05-01T15:48:46.561Z,49.24
2018-05-01T15:51:21.401Z,50.16
2018-05-01T15:53:56.338Z,50.22
2018-05-01T15:56:31.175Z,50.22
2018-05-01T15:59:06.206Z,50.99
2018-05-01T16:01:40.985Z,50.76
2018-05-01T16:04:15.945Z,50.02
2018-05-01T16:06:49.924Z,50.88
2018-05-01T16:09:25.120Z,50.00
2018-05-01T16:12:00.173Z,49.90
2018-05-01T16:14:35.173Z,47.33
2018-05-01T16:17:10.141Z,46.24
2018-05-01T16:19:45.033Z,46.46
2018-05-01T16:22:20.213Z,47.21
2018-05-01T16:24:55.443Z,47.77
2018-05-01T16:27:30.349Z,47.93
2018-05-01T16:30:04.633Z,48.73
2018-05-01T16:32:39.197Z,48.70
2018-05-01T16:35:14.225Z,49.26
2018-05-01T16:37:49.481Z,49.38
2018-05-01T16:40:33.921Z,47.69
2018-05-01T16:43:08.375Z,47.11
2018-05-01T16:45:42.596Z,47.12
2018-05-01T16:48:17.581Z,47.17
2018-05-01T16:50:52.640Z,47.03
2018-05-01T16:53:27.748Z,47.69
2018-05-01T16:56:02.525Z,48.98
2018-05-01T16:58:37.166Z,47.94
2018-05-01T17:01:12.031Z,48.69
2018-05-01T17:03:47.201Z,48.67
2018-05-01T17:06:21.735Z,48.31
2018-05-01T17:08:56.861Z,48.99
2018-05-01T17:11:32.044Z,49.96
2018-05-01T17:14:07.270Z,48.67
2018-05-01T17:16:43.377Z,49.12
2018-05-01T17:19:18.073Z,48.38
2018-05-01T17:21:52.600Z,48.95
2018-05-01T17:24:27.202Z,48.54
2018-05-01T17:27:02.337Z,48.90
2018-05-01T17:29:37.165Z,50.32
2018-05-01T17:32:11.750Z,49.59
2018-05-01T17:34:46.519Z,49.98
2018-05-01T17:37:21.276Z,50.45
2018-05-01T17:39:55.952Z,50.00
2018-05-01T17:42:30.809Z,50.16
2018-05-01T17:45:05.073Z,50.41
2018-05-01T17:47:39.892Z,49.92
2018-05-01T17:50:14.789Z,50.14
2018-05-01T17:52:50.417Z,50.29
2018-05-01T17:55:25.354Z,50.37
2018-05-01T17:58:00.171Z,50.54
2018-05-01T18:00:34.735Z,50.29
2018-05-01T18:03:09.566Z,51.06
2018-05-01T18:05:44.029Z,51.06
2018-05-01T18:08:19.157Z,51.46
2018-05-01T18:10:53.962Z,50.95
2018-05-01T18:13:29.005Z,50.91
2018-05-01T18:16:03.721Z,50.94
2018-05-01T18:18:38.469Z,51.63
2018-05-01T18:21:13.275Z,51.39
2018-05-01T18:23:47.985Z,51.57
2018-05-01T18:26:22.574Z,51.72
2018-05-01T18:28:57.752Z,52.42
2018-05-01T18:31:32.710Z,52.98
2018-05-01T18:34:07.238Z,52.85
2018-05-01T18:36:41.945Z,53.21
2018-05-01T18:39:17.037Z,53.13
2018-05-01T18:41:51.653Z,53.58
2018-05-01T18:44:26.401Z,54.28
2018-05-01T18:47:01.177Z,54.80
2018-05-01T18:49:36.495Z,55.25
2018-05-01T18:52:11.566Z,55.22
2018-05-01T18:54:46.964Z,55.38
2018-05-01T18:57:21.964Z,55.51
2018-05-01T18:59:56.401Z,55.83
2018-05-01T19:02:31.610Z,56.10
2018-05-01T19:05:06.430Z,55.90
2018-05-01T19:07:41.408Z,56.28
2018-05-01T19:10:16.407Z,56.84
2018-05-01T19:12:51.061Z,57.30
2018-05-01T19:15:26.417Z,57.64
2018-05-01T19:18:01.454Z,57.95
2018-05-01T19:20:36.276Z,58.14
2018-05-01T19:23:11.062Z,58.55
2018-05-01T19:25:45.564Z,59.01
2018-05-01T19:28:20.947Z,59.40
2018-05-01T19:30:55.768Z,59.81
2018-05-01T19:33:30.897Z,60.29
2018-05-01T19:36:05.266Z,60.51
2018-05-01T19:38:40.309Z,60.52
2018-05-01T19:41:14.953Z,60.87
2018-05-01T19:43:50.246Z,60.97
2018-05-01T19:46:25.332Z,60.80
2018-05-01T19:49:00.673Z,60.62
2018-05-01T19:51:36.018Z,60.90
2018-05-01T19:54:10.905Z,61.29
2018-05-01T19:56:46.118Z,61.81
2018-05-01T19:59:21.272Z,62.09
2018-05-01T20:01:56.297Z,62.58
2018-05-01T20:04:31.114Z,62.89
2018-05-01T20:07:05.726Z,63.25
2018-05-01T20:09:40.778Z,63.34
2018-05-01T20:12:16.129Z,63.69
2018-05-01T20:14:51.192Z,63.64
2018-05-01T20:17:26.113Z,64.10
2018-05-01T20:20:01.508Z,64.38
2018-05-01T20:22:36.062Z,64.71
2018-05-01T20:25:11.226Z,64.91
2018-05-01T20:27:46.129Z,65.23
2018-05-01T20:30:21.012Z,65.62
2018-05-01T20:32:55.884Z,66.21
2018-05-01T20:35:30.638Z,66.49
2018-05-01T20:38:05.132Z,66.70
2018-05-01T20:40:40.090Z,66.97
2018-05-01T20:43:14.973Z,67.04
2018-05-01T20:45:50.074Z,67.38
2018-05-01T20:48:25.186Z,68.01
2018-05-01T20:50:59.582Z,68.44
2018-05-01T20:53:34.280Z,68.90
2018-05-01T20:56:09.081Z,69.31
2018-05-01T20:58:43.803Z,69.61
2018-05-01T21:01:18.962Z,69.86
2018-05-01T21:03:53.777Z,69.92
2018-05-01T21:06:28.792Z,70.03
2018-05-01T21:09:03.290Z,70.31
2018-05-01T21:11:38.578Z,70.50
2018-05-01T21:14:14.009Z,70.87
2018-05-01T21:16:49.080Z,71.25
2018-05-01T21:19:24.296Z,71.50
2018-05-01T21:21:58.661Z,71.57
2018-05-01T21:24:33.960Z,71.74
2018-05-01T21:27:08.701Z,72.02
2018-05-01T21:29:43.689Z,72.71
2018-05-01T21:32:18.553Z,73.22
2018-05-01T21:34:53.317Z,73.40
2018-05-01T21:37:27.799Z,73.69
2018-05-01T21:40:02.894Z,73.55
2018-05-01T21:42:37.757Z,73.58
2018-05-01T21:45:12.740Z,73.68
2018-05-01T21:47:47.948Z,73.74
2018-05-01T21:50:23.245Z,73.84
2018-05-01T21:52:58.502Z,74.03
2018-05-01T21:55:34.237Z,74.14
2018-05-01T21:58:09.538Z,74.32
2018-05-01T22:00:44.914Z,74.46
2018-05-01T22:03:19.609Z,74.74
2018-05-01T22:05:54.736Z,74.93
2018-05-01T22:08:29.673Z,75.34
2018-05-01T22:11:05.122Z,75.49
2018-05-01T22:13:39.730Z,75.74
2018-05-01T22:16:14.759Z,75.96
2018-05-01T22:18:50.329Z,75.97
2018-05-01T22:21:26.374Z,76.11
2018-05-01T22:24:01.717Z,76.46
2018-05-01T22:26:36.462Z,76.90
2018-05-01T22:29:11.703Z,77.10
2018-05-01T22:31:46.749Z,77.24
2018-05-01T22:34:21.567Z,77.30
2018-05-01T22:36:56.601Z,77.54
2018-05-01T22:39:31.641Z,77.43
2018-05-01T22:42:06.678Z,77.52
2018-05-01T22:44:41.606Z,77.50
2018-05-01T22:47:16.441Z,77.39
2018-05-01T22:49:51.145Z,77.40
2018-05-01T22:52:26.102Z,77.38
2018-05-01T22:55:01.941Z,77.43
2018-05-01T22:57:36.653Z,77.44
2018-05-01T23:00:10.917Z,77.41
2018-05-01T23:02:45.336Z,77.59
2018-05-01T23:05:20.353Z,77.99
2018-05-01T23:07:55.385Z,78.24
2018-05-01T23:10:29.857Z,78.42
2018-05-01T23:13:04.841Z,78.51
2018-05-01T23:15:39.900Z,78.62
2018-05-01T23:18:14.801Z,78.67
2018-05-01T23:20:49.617Z,78.90
2018-05-01T23:23:24.657Z,79.05
2018-05-01T23:25:59.532Z,79.20
2018-05-01T23:28:34.556Z,79.25
2018-05-01T23:31:09.785Z,79.32
2018-05-01T23:33:44.795Z,79.41
2018-05-01T23:36:19.488Z,79.46
2018-05-01T23:38:54.573Z,79.49
2018-05-01T23:41:29.244Z,79.40
2018-05-01T23:44:03.953Z,79.22
2018-05-01T23:46:38.883Z,79.10
2018-05-01T23:49:13.809Z,79.07
2018-05-01T23:51:48.561Z,78.94
2018-05-01T23:54:23.790Z,78.88
2018-05-01T23:56:58.921Z,78.89
2018-05-01T23:59:33.925Z,78.97
